createdAt,value
2023-03-18T00:00:19.385Z,9.90
2023-03-18T00:05:21.579Z,9.90
2023-03-18T00:10:24.375Z,9.80
2023-03-18T00:15:26.516Z,9.60
2023-03-18T00:20:40.883Z,9.50
2023-03-18T00:25:43.156Z,9.40
2023-03-18T00:30:46.585Z,7.20
2023-03-18T00:35:48.976Z,9.30
2023-03-18T00:41:01.776Z,9.40
2023-03-18T00:46:04.029Z,9.40
2023-03-18T00:51:06.981Z,9.40
2023-03-18T00:56:09.309Z,9.40
2023-03-18T01:01:15.456Z,9.40
2023-03-18T01:06:24.215Z,9.30
2023-03-18T01:11:26.575Z,9.30
2023-03-18T01:16:32.259Z,9.30
2023-03-18T01:21:34.655Z,9.20
2023-03-18T01:26:37.089Z,9.10
2023-03-18T01:31:41.723Z,9.10
2023-03-18T01:36:43.709Z,9.00
2023-03-18T01:41:47.298Z,9.00
2023-03-18T01:46:53.265Z,8.90
2023-03-18T01:52:11.872Z,8.90
2023-03-18T01:57:17.582Z,8.90
2023-03-18T02:02:21.154Z,9.00
2023-03-18T02:07:32.682Z,8.90
2023-03-18T02:12:36.788Z,8.90
2023-03-18T02:17:46.976Z,8.90
2023-03-18T02:22:54.040Z,8.90
2023-03-18T02:28:01.251Z,8.80
2023-03-18T02:33:04.228Z,8.80
2023-03-18T02:38:09.143Z,8.80
2023-03-18T02:43:21.939Z,8.80
2023-03-18T02:48:28.734Z,6.60
2023-03-18T02:53:32.341Z,8.60
2023-03-18T02:58:38.340Z,8.60
2023-03-18T03:03:41.604Z,8.50
2023-03-18T03:08:46.762Z,8.60
2023-03-18T03:13:49.663Z,8.70
2023-03-18T03:18:55.016Z,8.60
2023-03-18T03:23:57.282Z,8.50
2023-03-18T03:29:00.707Z,8.40
2023-03-18T03:34:03.243Z,8.50
2023-03-18T03:39:06.545Z,8.40
2023-03-18T03:44:08.521Z,8.40
2023-03-18T03:49:11.618Z,8.40
2023-03-18T03:54:13.709Z,8.30
2023-03-18T03:59:17.559Z,8.30
2023-03-18T04:04:22.868Z,8.40
2023-03-18T04:09:25.585Z,8.40
2023-03-18T04:14:30.810Z,8.20
2023-03-18T04:19:34.214Z,8.10
2023-03-18T04:24:36.710Z,8.10
2023-03-18T04:29:39.999Z,8.10
2023-03-18T04:34:44.933Z,8.10
2023-03-18T04:39:49.007Z,7.90
2023-03-18T04:44:50.987Z,8.00
2023-03-18T04:49:53.419Z,8.00
2023-03-18T04:54:57.118Z,8.10
2023-03-18T04:59:59.412Z,8.10
2023-03-18T05:05:04.614Z,8.00
2023-03-18T05:10:07.396Z,7.70
2023-03-18T05:15:13.482Z,7.70
2023-03-18T05:20:16.427Z,7.60
2023-03-18T05:25:22.218Z,7.60
2023-03-18T05:30:28.659Z,7.50
2023-03-18T05:35:32.428Z,7.60
2023-03-18T05:40:36.571Z,7.50
2023-03-18T05:45:40.643Z,7.60
2023-03-18T05:50:43.900Z,5.90
2023-03-18T05:55:49.559Z,7.40
2023-03-18T06:00:53.682Z,7.40
2023-03-18T06:05:59.152Z,7.30
2023-03-18T06:11:02.400Z,7.40
2023-03-18T06:16:08.938Z,7.40
2023-03-18T06:21:11.201Z,7.30
2023-03-18T06:26:13.501Z,7.40
2023-03-18T06:31:24.077Z,7.50
2023-03-18T06:36:28.934Z,7.50
2023-03-18T06:41:32.227Z,7.60
2023-03-18T06:46:34.700Z,7.60
2023-03-18T06:51:40.137Z,7.70
2023-03-18T06:56:43.830Z,7.80
2023-03-18T07:01:51.876Z,7.90
2023-03-18T07:06:56.631Z,8.00
2023-03-18T07:12:01.046Z,8.00
2023-03-18T07:17:07.262Z,8.00
2023-03-18T07:22:09.690Z,8.40
2023-03-18T07:27:13.551Z,8.70
2023-03-18T07:32:19.917Z,9.00
2023-03-18T07:37:22.545Z,9.10
2023-03-18T07:42:28.963Z,9.50
2023-03-18T07:47:31.660Z,9.60
2023-03-18T07:52:34.950Z,9.90
2023-03-18T07:57:41.737Z,9.80
2023-03-18T08:02:44.558Z,10.20
2023-03-18T08:07:46.902Z,10.90
2023-03-18T08:12:54.074Z,10.90
2023-03-18T08:17:57.866Z,11.50
2023-03-18T08:23:05.924Z,12.00
2023-03-18T08:28:24.861Z,12.40
2023-03-18T08:33:32.227Z,13.00
2023-03-18T08:44:45.358Z,14.00
2023-03-18T08:50:00.072Z,14.60
2023-03-18T08:55:56.392Z,15.20
2023-03-18T09:01:20.193Z,15.90
2023-03-18T09:06:45.912Z,16.20
2023-03-18T09:12:03.966Z,18.10
2023-03-18T09:23:11.180Z,17.00
2023-03-18T09:28:28.681Z,17.60
2023-03-18T09:33:45.363Z,17.70
2023-03-18T09:38:56.860Z,17.90
2023-03-18T09:44:15.839Z,18.20
2023-03-18T09:49:45.318Z,18.90
2023-03-18T09:55:24.415Z,18.90
2023-03-18T10:00:46.659Z,19.10
2023-03-18T10:06:10.367Z,19.10
2023-03-18T10:11:41.486Z,18.60
2023-03-18T10:17:43.321Z,19.30
2023-03-18T10:23:41.538Z,19.50
2023-03-18T10:29:33.988Z,19.40
2023-03-18T10:34:54.059Z,20.00
2023-03-18T10:40:31.825Z,19.90
2023-03-18T10:45:45.465Z,19.90
2023-03-18T11:08:57.249Z,20.40
2023-03-18T11:14:47.849Z,21.00
2023-03-18T11:20:42.280Z,21.80
2023-03-18T11:31:55.146Z,21.10
2023-03-18T11:37:14.483Z,22.00
2023-03-18T11:42:44.033Z,21.20
2023-03-18T11:48:00.120Z,22.00
2023-03-18T11:53:15.835Z,22.00
2023-03-18T11:59:05.478Z,22.60
2023-03-18T12:04:38.725Z,22.70
2023-03-18T12:09:55.751Z,23.00
2023-03-18T12:15:07.123Z,22.10
2023-03-18T12:20:31.707Z,23.40
2023-03-18T12:25:47.415Z,23.40
2023-03-18T12:31:05.096Z,23.90
2023-03-18T12:36:50.535Z,24.00
2023-03-18T12:42:09.616Z,24.30
2023-03-18T12:47:26.323Z,24.40
2023-03-18T12:52:37.325Z,23.50
2023-03-18T12:57:51.558Z,23.30
2023-03-18T13:02:55.767Z,24.10
2023-03-18T13:08:30.785Z,24.10
2023-03-18T13:13:37.178Z,24.40
2023-03-18T13:18:45.481Z,24.20
2023-03-18T13:24:31.583Z,24.40
2023-03-18T13:29:43.463Z,24.00
2023-03-18T13:34:47.792Z,25.60
2023-03-18T13:39:57.116Z,25.30
2023-03-18T13:45:26.695Z,25.10
2023-03-18T13:50:39.040Z,24.60
2023-03-18T13:55:48.142Z,25.30
2023-03-18T14:00:56.325Z,25.50
2023-03-18T14:06:10.723Z,25.70
2023-03-18T14:11:23.344Z,24.10
2023-03-18T14:16:30.291Z,23.70
2023-03-18T14:21:34.778Z,23.40
2023-03-18T14:26:38.193Z,24.30
2023-03-18T14:31:44.693Z,24.80
2023-03-18T14:36:55.075Z,24.00
2023-03-18T14:41:58.699Z,23.80
2023-03-18T14:47:28.176Z,23.60
2023-03-18T14:52:42.409Z,22.90
2023-03-18T14:57:46.774Z,21.90
2023-03-18T15:03:02.216Z,21.40
2023-03-18T15:08:17.956Z,21.30
2023-03-18T15:13:25.123Z,21.10
2023-03-18T15:18:34.878Z,21.00
2023-03-18T15:23:40.385Z,20.80
2023-03-18T15:28:48.216Z,20.70
2023-03-18T15:34:04.114Z,20.50
2023-03-18T15:39:34.230Z,20.40
2023-03-18T15:44:39.120Z,20.10
2023-03-18T15:49:54.892Z,20.10
2023-03-18T15:54:58.925Z,19.90
2023-03-18T16:00:01.453Z,19.90
2023-03-18T16:05:15.622Z,19.90
2023-03-18T16:10:23.079Z,19.50
2023-03-18T16:15:26.990Z,19.40
2023-03-18T16:20:31.802Z,19.20
2023-03-18T16:25:35.418Z,19.00
2023-03-18T16:30:40.392Z,18.70
2023-03-18T16:35:43.698Z,18.40
2023-03-18T16:40:47.243Z,18.20
2023-03-18T16:45:52.705Z,17.90
2023-03-18T16:50:57.161Z,17.60
2023-03-18T16:56:02.834Z,17.40
2023-03-18T17:01:08.766Z,17.10
2023-03-18T17:06:11.209Z,16.90
2023-03-18T17:11:18.869Z,16.80
2023-03-18T17:16:22.640Z,16.60
2023-03-18T17:21:30.425Z,16.20
2023-03-18T17:26:33.180Z,16.20
2023-03-18T17:31:39.368Z,16.00
2023-03-18T17:36:41.893Z,15.80
2023-03-18T17:41:45.957Z,15.60
2023-03-18T17:46:48.281Z,15.50
2023-03-18T17:51:56.504Z,15.20
2023-03-18T17:56:58.941Z,15.20
2023-03-18T18:02:01.854Z,15.10
2023-03-18T18:07:17.402Z,14.90
2023-03-18T18:12:25.263Z,14.60
2023-03-18T18:17:29.000Z,14.40
2023-03-18T18:22:31.510Z,14.40
2023-03-18T18:27:34.140Z,14.30
2023-03-18T18:32:39.697Z,14.20
2023-03-18T18:37:42.761Z,14.20
2023-03-18T18:42:45.286Z,14.00
2023-03-18T18:47:48.227Z,13.90
2023-03-18T18:52:50.936Z,13.70
2023-03-18T18:57:53.433Z,13.70
2023-03-18T19:02:57.407Z,13.60
2023-03-18T19:08:01.434Z,13.50
2023-03-18T19:13:13.798Z,13.40
2023-03-18T19:18:21.016Z,13.20
2023-03-18T19:23:27.048Z,13.20
2023-03-18T19:28:57.048Z,13.00
2023-03-18T19:34:00.965Z,13.00
2023-03-18T19:39:13.830Z,12.90
2023-03-18T19:44:26.869Z,12.80
2023-03-18T19:49:35.823Z,12.60
2023-03-18T19:54:39.783Z,12.50
2023-03-18T19:59:45.856Z,12.40
2023-03-18T20:04:50.240Z,12.40
2023-03-18T20:09:56.228Z,12.30
2023-03-18T20:14:58.386Z,12.40
2023-03-18T20:20:01.298Z,12.30
2023-03-18T20:25:15.904Z,12.20
2023-03-18T20:30:35.924Z,12.00
2023-03-18T20:35:43.636Z,11.90
2023-03-18T20:40:49.425Z,11.90
2023-03-18T20:45:52.434Z,11.90
2023-03-18T20:50:55.492Z,11.90
2023-03-18T20:55:58.671Z,11.80
2023-03-18T21:01:02.034Z,11.70
2023-03-18T21:06:07.956Z,11.90
2023-03-18T21:11:29.792Z,11.80
2023-03-18T21:16:36.367Z,11.60
2023-03-18T21:21:40.005Z,11.60
2023-03-18T21:26:54.242Z,11.40
2023-03-18T21:32:04.218Z,11.20
2023-03-18T21:37:16.660Z,11.40
2023-03-18T21:42:30.680Z,12.50
2023-03-18T21:47:32.969Z,11.50
2023-03-18T21:52:38.253Z,11.30
2023-03-18T21:57:41.361Z,11.20
2023-03-18T22:02:43.743Z,11.20
2023-03-18T22:07:46.404Z,11.20
2023-03-18T22:12:49.406Z,11.10
2023-03-18T22:17:52.219Z,10.80
2023-03-18T22:22:54.690Z,10.90
2023-03-18T22:27:58.404Z,10.80
2023-03-18T22:33:01.914Z,10.40
2023-03-18T22:38:04.351Z,10.80
2023-03-18T22:43:28.905Z,10.70
2023-03-18T22:48:33.955Z,10.60
2023-03-18T22:53:41.453Z,10.60
2023-03-18T22:58:43.919Z,10.70
2023-03-18T23:03:47.810Z,10.60
2023-03-18T23:08:54.753Z,12.20
2023-03-18T23:13:58.021Z,10.40
2023-03-18T23:19:00.207Z,10.40
2023-03-18T23:24:02.428Z,10.30
2023-03-18T23:29:05.036Z,10.20
2023-03-18T23:34:10.947Z,10.10
2023-03-18T23:39:13.578Z,10.00
2023-03-18T23:44:16.085Z,9.90
2023-03-18T23:49:18.522Z,9.90
2023-03-18T23:54:21.052Z,10.00
2023-03-18T23:59:23.523Z,10.00
